sensor_id;sensor_type;location;lat;lon;timestamp;P1;durP1;ratioP1;P2;durP2;ratioP2
61590;SDS011;57639;52.410;-1.966;2023-04-23T00:00:59;5.43;;;4.93;;
61590;SDS011;57639;52.410;-1.966;2023-04-23T00:04:08;5.47;;;4.97;;
61590;SDS011;57639;52.410;-1.966;2023-04-23T00:07:19;6.10;;;4.75;;
61590;SDS011;57639;52.410;-1.966;2023-04-23T00:10:26;5.47;;;4.88;;
61590;SDS011;57639;52.410;-1.966;2023-04-23T00:13:33;6.10;;;4.82;;
61590;SDS011;57639;52.410;-1.966;2023-04-23T00:16:40;7.75;;;5.07;;
61590;SDS011;57639;52.410;-1.966;2023-04-23T00:19:47;6.68;;;4.95;;
61590;SDS011;57639;52.410;-1.966;2023-04-23T00:22:56;5.13;;;4.63;;
61590;SDS011;57639;52.410;-1.966;2023-04-23T00:26:02;7.20;;;4.93;;
61590;SDS011;57639;52.410;-1.966;2023-04-23T00:29:09;4.95;;;4.45;;
61590;SDS011;57639;52.410;-1.966;2023-04-23T00:32:15;6.22;;;4.93;;
61590;SDS011;57639;52.410;-1.966;2023-04-23T00:35:21;4.70;;;4.20;;
61590;SDS011;57639;52.410;-1.966;2023-04-23T00:38:30;5.70;;;5.10;;
61590;SDS011;57639;52.410;-1.966;2023-04-23T00:41:37;5.28;;;4.38;;
61590;SDS011;57639;52.410;-1.966;2023-04-23T00:44:45;5.38;;;4.57;;
61590;SDS011;57639;52.410;-1.966;2023-04-23T00:47:53;6.28;;;4.85;;
61590;SDS011;57639;52.410;-1.966;2023-04-23T00:51:02;5.57;;;4.35;;
61590;SDS011;57639;52.410;-1.966;2023-04-23T00:54:12;5.28;;;4.38;;
61590;SDS011;57639;52.410;-1.966;2023-04-23T00:57:18;5.20;;;4.70;;
61590;SDS011;57639;52.410;-1.966;2023-04-23T01:00:25;6.18;;;4.88;;
61590;SDS011;57639;52.410;-1.966;2023-04-23T01:03:32;6.05;;;4.80;;
61590;SDS011;57639;52.410;-1.966;2023-04-23T01:06:42;5.50;;;4.53;;
61590;SDS011;57639;52.410;-1.966;2023-04-23T01:09:55;6.50;;;4.57;;
61590;SDS011;57639;52.410;-1.966;2023-04-23T01:13:02;5.03;;;4.45;;
61590;SDS011;57639;52.410;-1.966;2023-04-23T01:16:09;5.20;;;4.70;;
61590;SDS011;57639;52.410;-1.966;2023-04-23T01:19:16;7.60;;;5.15;;
61590;SDS011;57639;52.410;-1.966;2023-04-23T01:22:25;5.53;;;4.80;;
61590;SDS011;57639;52.410;-1.966;2023-04-23T01:25:31;5.30;;;4.43;;
61590;SDS011;57639;52.410;-1.966;2023-04-23T01:28:38;5.15;;;4.32;;
61590;SDS011;57639;52.410;-1.966;2023-04-23T01:31:45;5.30;;;4.80;;
61590;SDS011;57639;52.410;-1.966;2023-04-23T01:34:52;5.60;;;4.90;;
61590;SDS011;57639;52.410;-1.966;2023-04-23T01:38:02;5.25;;;4.75;;
61590;SDS011;57639;52.410;-1.966;2023-04-23T01:41:10;6.53;;;4.63;;
61590;SDS011;57639;52.410;-1.966;2023-04-23T01:44:17;5.32;;;4.80;;
61590;SDS011;57639;52.410;-1.966;2023-04-23T01:47:23;6.30;;;4.85;;
61590;SDS011;57639;52.410;-1.966;2023-04-23T01:50:30;5.90;;;4.32;;
61590;SDS011;57639;52.410;-1.966;2023-04-23T01:53:39;4.93;;;4.43;;
61590;SDS011;57639;52.410;-1.966;2023-04-23T01:56:46;6.05;;;4.30;;
61590;SDS011;57639;52.410;-1.966;2023-04-23T02:03:05;5.07;;;4.50;;
61590;SDS011;57639;52.410;-1.966;2023-04-23T02:06:12;5.78;;;4.80;;
61590;SDS011;57639;52.410;-1.966;2023-04-23T02:09:21;5.43;;;4.72;;
61590;SDS011;57639;52.410;-1.966;2023-04-23T02:12:28;5.82;;;4.35;;
61590;SDS011;57639;52.410;-1.966;2023-04-23T02:15:34;6.10;;;4.50;;
61590;SDS011;57639;52.410;-1.966;2023-04-23T02:18:42;6.65;;;5.43;;
61590;SDS011;57639;52.410;-1.966;2023-04-23T02:21:48;5.60;;;4.78;;
61590;SDS011;57639;52.410;-1.966;2023-04-23T02:24:57;5.57;;;4.97;;
61590;SDS011;57639;52.410;-1.966;2023-04-23T02:28:04;5.95;;;4.47;;
61590;SDS011;57639;52.410;-1.966;2023-04-23T02:31:13;5.40;;;4.38;;
61590;SDS011;57639;52.410;-1.966;2023-04-23T02:34:22;4.97;;;4.43;;
61590;SDS011;57639;52.410;-1.966;2023-04-23T02:37:28;5.15;;;4.55;;
61590;SDS011;57639;52.410;-1.966;2023-04-23T02:40:37;5.22;;;4.70;;
61590;SDS011;57639;52.410;-1.966;2023-04-23T02:43:43;4.60;;;4.10;;
61590;SDS011;57639;52.410;-1.966;2023-04-23T02:46:50;5.10;;;4.53;;
61590;SDS011;57639;52.410;-1.966;2023-04-23T02:49:56;4.72;;;4.20;;
61590;SDS011;57639;52.410;-1.966;2023-04-23T02:53:04;5.40;;;4.50;;
61590;SDS011;57639;52.410;-1.966;2023-04-23T02:56:13;4.97;;;4.13;;
61590;SDS011;57639;52.410;-1.966;2023-04-23T02:59:20;5.47;;;4.35;;
61590;SDS011;57639;52.410;-1.966;2023-04-23T03:02:26;4.75;;;4.10;;
61590;SDS011;57639;52.410;-1.966;2023-04-23T03:05:32;6.00;;;4.50;;
61590;SDS011;57639;52.410;-1.966;2023-04-23T03:08:39;5.07;;;4.57;;
61590;SDS011;57639;52.410;-1.966;2023-04-23T03:11:48;5.13;;;4.47;;
61590;SDS011;57639;52.410;-1.966;2023-04-23T03:14:54;5.13;;;4.38;;
61590;SDS011;57639;52.410;-1.966;2023-04-23T03:18:00;5.40;;;4.90;;
61590;SDS011;57639;52.410;-1.966;2023-04-23T03:21:09;4.90;;;4.40;;
61590;SDS011;57639;52.410;-1.966;2023-04-23T03:24:16;5.32;;;4.57;;
61590;SDS011;57639;52.410;-1.966;2023-04-23T03:27:26;5.45;;;4.45;;
61590;SDS011;57639;52.410;-1.966;2023-04-23T03:30:32;6.55;;;4.88;;
61590;SDS011;57639;52.410;-1.966;2023-04-23T03:33:39;4.97;;;4.45;;
61590;SDS011;57639;52.410;-1.966;2023-04-23T03:36:45;6.10;;;4.93;;
61590;SDS011;57639;52.410;-1.966;2023-04-23T03:39:52;5.68;;;4.85;;
61590;SDS011;57639;52.410;-1.966;2023-04-23T03:43:01;5.85;;;4.85;;
61590;SDS011;57639;52.410;-1.966;2023-04-23T03:46:07;5.78;;;5.15;;
61590;SDS011;57639;52.410;-1.966;2023-04-23T03:49:14;6.03;;;5.25;;
61590;SDS011;57639;52.410;-1.966;2023-04-23T03:52:20;6.43;;;5.22;;
61590;SDS011;57639;52.410;-1.966;2023-04-23T03:55:26;6.60;;;5.47;;
61590;SDS011;57639;52.410;-1.966;2023-04-23T03:58:35;6.55;;;5.43;;
61590;SDS011;57639;52.410;-1.966;2023-04-23T04:01:42;7.20;;;5.97;;
61590;SDS011;57639;52.410;-1.966;2023-04-23T04:04:51;6.40;;;5.40;;
61590;SDS011;57639;52.410;-1.966;2023-04-23T04:07:57;6.07;;;5.20;;
61590;SDS011;57639;52.410;-1.966;2023-04-23T04:11:04;6.70;;;5.57;;
61590;SDS011;57639;52.410;-1.966;2023-04-23T04:14:13;6.35;;;5.25;;
61590;SDS011;57639;52.410;-1.966;2023-04-23T04:17:20;6.40;;;5.57;;
61590;SDS011;57639;52.410;-1.966;2023-04-23T04:20:26;6.80;;;5.93;;
61590;SDS011;57639;52.410;-1.966;2023-04-23T04:23:33;7.13;;;5.95;;
61590;SDS011;57639;52.410;-1.966;2023-04-23T04:26:39;6.78;;;5.78;;
61590;SDS011;57639;52.410;-1.966;2023-04-23T04:29:48;6.70;;;5.93;;
61590;SDS011;57639;52.410;-1.966;2023-04-23T04:32:54;7.20;;;5.50;;
61590;SDS011;57639;52.410;-1.966;2023-04-23T04:36:01;6.25;;;5.50;;
61590;SDS011;57639;52.410;-1.966;2023-04-23T04:39:07;6.75;;;5.70;;
61590;SDS011;57639;52.410;-1.966;2023-04-23T04:42:16;5.97;;;5.18;;
61590;SDS011;57639;52.410;-1.966;2023-04-23T04:45:25;6.70;;;5.70;;
61590;SDS011;57639;52.410;-1.966;2023-04-23T04:48:31;6.45;;;5.13;;
61590;SDS011;57639;52.410;-1.966;2023-04-23T04:51:38;6.10;;;5.13;;
61590;SDS011;57639;52.410;-1.966;2023-04-23T04:54:45;6.45;;;5.57;;
61590;SDS011;57639;52.410;-1.966;2023-04-23T04:57:51;6.97;;;5.40;;
61590;SDS011;57639;52.410;-1.966;2023-04-23T05:01:01;6.55;;;5.28;;
61590;SDS011;57639;52.410;-1.966;2023-04-23T05:04:07;6.80;;;5.50;;
61590;SDS011;57639;52.410;-1.966;2023-04-23T05:07:13;6.03;;;5.18;;
61590;SDS011;57639;52.410;-1.966;2023-04-23T05:10:20;7.75;;;5.65;;
61590;SDS011;57639;52.410;-1.966;2023-04-23T05:13:27;6.45;;;5.45;;
61590;SDS011;57639;52.410;-1.966;2023-04-23T05:16:36;7.00;;;5.65;;
61590;SDS011;57639;52.410;-1.966;2023-04-23T05:19:42;7.57;;;5.82;;
61590;SDS011;57639;52.410;-1.966;2023-04-23T05:22:49;6.65;;;5.53;;
61590;SDS011;57639;52.410;-1.966;2023-04-23T05:25:56;7.18;;;5.80;;
61590;SDS011;57639;52.410;-1.966;2023-04-23T05:29:05;7.05;;;5.45;;
61590;SDS011;57639;52.410;-1.966;2023-04-23T05:32:14;7.93;;;6.10;;
61590;SDS011;57639;52.410;-1.966;2023-04-23T05:35:20;6.90;;;5.57;;
61590;SDS011;57639;52.410;-1.966;2023-04-23T05:38:28;6.78;;;5.53;;
61590;SDS011;57639;52.410;-1.966;2023-04-23T05:41:34;7.68;;;6.00;;
61590;SDS011;57639;52.410;-1.966;2023-04-23T05:44:41;7.55;;;6.00;;
61590;SDS011;57639;52.410;-1.966;2023-04-23T05:47:50;7.47;;;6.15;;
61590;SDS011;57639;52.410;-1.966;2023-04-23T05:50:56;7.37;;;6.00;;
61590;SDS011;57639;52.410;-1.966;2023-04-23T05:54:03;7.78;;;6.38;;
61590;SDS011;57639;52.410;-1.966;2023-04-23T05:57:09;7.95;;;5.93;;
61590;SDS011;57639;52.410;-1.966;2023-04-23T06:00:16;6.85;;;5.63;;
61590;SDS011;57639;52.410;-1.966;2023-04-23T06:03:25;7.70;;;6.25;;
61590;SDS011;57639;52.410;-1.966;2023-04-23T06:06:32;7.28;;;6.03;;
61590;SDS011;57639;52.410;-1.966;2023-04-23T06:09:38;8.80;;;6.72;;
61590;SDS011;57639;52.410;-1.966;2023-04-23T06:12:44;7.65;;;6.20;;
61590;SDS011;57639;52.410;-1.966;2023-04-23T06:15:50;7.90;;;6.32;;
61590;SDS011;57639;52.410;-1.966;2023-04-23T06:18:59;8.15;;;6.53;;
61590;SDS011;57639;52.410;-1.966;2023-04-23T06:22:06;7.63;;;6.50;;
61590;SDS011;57639;52.410;-1.966;2023-04-23T06:25:12;7.70;;;6.57;;
61590;SDS011;57639;52.410;-1.966;2023-04-23T06:28:19;8.13;;;6.55;;
61590;SDS011;57639;52.410;-1.966;2023-04-23T06:31:25;7.97;;;6.20;;
61590;SDS011;57639;52.410;-1.966;2023-04-23T06:34:35;10.15;;;6.05;;
61590;SDS011;57639;52.410;-1.966;2023-04-23T06:37:41;7.82;;;6.28;;
61590;SDS011;57639;52.410;-1.966;2023-04-23T06:40:48;8.15;;;6.70;;
61590;SDS011;57639;52.410;-1.966;2023-04-23T06:43:54;8.57;;;6.80;;
61590;SDS011;57639;52.410;-1.966;2023-04-23T06:47:00;7.65;;;6.25;;
61590;SDS011;57639;52.410;-1.966;2023-04-23T06:50:10;7.63;;;6.13;;
61590;SDS011;57639;52.410;-1.966;2023-04-23T06:53:16;7.32;;;6.25;;
61590;SDS011;57639;52.410;-1.966;2023-04-23T06:56:23;7.97;;;6.10;;
61590;SDS011;57639;52.410;-1.966;2023-04-23T06:59:36;7.60;;;6.03;;
61590;SDS011;57639;52.410;-1.966;2023-04-23T07:02:43;6.88;;;5.75;;
61590;SDS011;57639;52.410;-1.966;2023-04-23T07:05:52;7.30;;;5.68;;
61590;SDS011;57639;52.410;-1.966;2023-04-23T07:08:58;7.60;;;6.27;;
61590;SDS011;57639;52.410;-1.966;2023-04-23T07:12:10;6.93;;;5.72;;
61590;SDS011;57639;52.410;-1.966;2023-04-23T07:15:18;7.38;;;5.95;;
61590;SDS011;57639;52.410;-1.966;2023-04-23T07:18:25;7.25;;;5.78;;
61590;SDS011;57639;52.410;-1.966;2023-04-23T07:21:34;6.30;;;5.32;;
61590;SDS011;57639;52.410;-1.966;2023-04-23T07:24:43;6.43;;;5.40;;
61590;SDS011;57639;52.410;-1.966;2023-04-23T07:27:50;6.20;;;5.25;;
61590;SDS011;57639;52.410;-1.966;2023-04-23T07:30:59;6.90;;;5.63;;
61590;SDS011;57639;52.410;-1.966;2023-04-23T07:34:06;6.38;;;5.53;;
61590;SDS011;57639;52.410;-1.966;2023-04-23T07:37:15;6.47;;;4.82;;
61590;SDS011;57639;52.410;-1.966;2023-04-23T07:43:29;6.55;;;5.20;;
61590;SDS011;57639;52.410;-1.966;2023-04-23T07:46:36;6.95;;;5.45;;
61590;SDS011;57639;52.410;-1.966;2023-04-23T07:49:42;5.80;;;5.20;;
61590;SDS011;57639;52.410;-1.966;2023-04-23T07:52:51;7.05;;;5.22;;
61590;SDS011;57639;52.410;-1.966;2023-04-23T07:55:57;7.53;;;5.47;;
61590;SDS011;57639;52.410;-1.966;2023-04-23T07:59:04;6.65;;;5.43;;
61590;SDS011;57639;52.410;-1.966;2023-04-23T08:02:11;6.80;;;5.30;;
61590;SDS011;57639;52.410;-1.966;2023-04-23T08:05:18;6.43;;;5.25;;
61590;SDS011;57639;52.410;-1.966;2023-04-23T08:08:27;6.10;;;4.97;;
61590;SDS011;57639;52.410;-1.966;2023-04-23T08:11:33;8.07;;;5.23;;
61590;SDS011;57639;52.410;-1.966;2023-04-23T08:14:39;6.15;;;5.03;;
61590;SDS011;57639;52.410;-1.966;2023-04-23T08:17:46;8.70;;;5.45;;
61590;SDS011;57639;52.410;-1.966;2023-04-23T08:20:53;6.45;;;5.25;;
61590;SDS011;57639;52.410;-1.966;2023-04-23T08:24:02;7.85;;;5.43;;
61590;SDS011;57639;52.410;-1.966;2023-04-23T08:30:15;7.25;;;5.75;;
61590;SDS011;57639;52.410;-1.966;2023-04-23T08:33:22;6.00;;;5.40;;
61590;SDS011;57639;52.410;-1.966;2023-04-23T08:36:28;7.22;;;5.32;;
61590;SDS011;57639;52.410;-1.966;2023-04-23T08:39:38;6.45;;;5.68;;
61590;SDS011;57639;52.410;-1.966;2023-04-23T08:42:47;8.23;;;5.80;;
61590;SDS011;57639;52.410;-1.966;2023-04-23T08:49:05;6.78;;;5.50;;
61590;SDS011;57639;52.410;-1.966;2023-04-23T08:52:14;8.55;;;5.78;;
61590;SDS011;57639;52.410;-1.966;2023-04-23T08:55:25;7.43;;;5.82;;
61590;SDS011;57639;52.410;-1.966;2023-04-23T08:58:31;7.50;;;5.63;;
61590;SDS011;57639;52.410;-1.966;2023-04-23T09:01:39;6.95;;;5.57;;
61590;SDS011;57639;52.410;-1.966;2023-04-23T09:04:46;7.40;;;5.53;;
61590;SDS011;57639;52.410;-1.966;2023-04-23T09:07:54;7.85;;;5.88;;
61590;SDS011;57639;52.410;-1.966;2023-04-23T09:11:06;7.53;;;5.90;;
61590;SDS011;57639;52.410;-1.966;2023-04-23T09:14:13;7.00;;;5.95;;
61590;SDS011;57639;52.410;-1.966;2023-04-23T09:17:19;7.93;;;6.18;;
61590;SDS011;57639;52.410;-1.966;2023-04-23T09:20:27;6.95;;;6.00;;
61590;SDS011;57639;52.410;-1.966;2023-04-23T09:23:33;7.10;;;6.00;;
61590;SDS011;57639;52.410;-1.966;2023-04-23T09:26:46;7.40;;;6.50;;
61590;SDS011;57639;52.410;-1.966;2023-04-23T09:29:53;7.20;;;6.20;;
61590;SDS011;57639;52.410;-1.966;2023-04-23T09:33:01;10.13;;;6.47;;
61590;SDS011;57639;52.410;-1.966;2023-04-23T09:36:09;8.05;;;6.38;;
61590;SDS011;57639;52.410;-1.966;2023-04-23T09:39:20;8.68;;;6.50;;
61590;SDS011;57639;52.410;-1.966;2023-04-23T09:42:31;8.68;;;7.05;;
61590;SDS011;57639;52.410;-1.966;2023-04-23T09:45:46;7.15;;;6.25;;
61590;SDS011;57639;52.410;-1.966;2023-04-23T09:48:55;7.65;;;6.28;;
61590;SDS011;57639;52.410;-1.966;2023-04-23T09:52:04;9.43;;;6.90;;
61590;SDS011;57639;52.410;-1.966;2023-04-23T09:55:31;8.80;;;7.47;;
61590;SDS011;57639;52.410;-1.966;2023-04-23T09:58:43;8.75;;;6.82;;
61590;SDS011;57639;52.410;-1.966;2023-04-23T10:01:50;8.35;;;6.90;;
61590;SDS011;57639;52.410;-1.966;2023-04-23T10:04:57;8.38;;;7.07;;
61590;SDS011;57639;52.410;-1.966;2023-04-23T10:08:03;8.45;;;6.88;;
61590;SDS011;57639;52.410;-1.966;2023-04-23T10:11:11;8.18;;;7.18;;
61590;SDS011;57639;52.410;-1.966;2023-04-23T10:14:20;8.20;;;7.20;;
61590;SDS011;57639;52.410;-1.966;2023-04-23T10:17:27;8.50;;;6.90;;
61590;SDS011;57639;52.410;-1.966;2023-04-23T10:20:53;9.00;;;7.28;;
61590;SDS011;57639;52.410;-1.966;2023-04-23T10:24:16;8.30;;;7.22;;
61590;SDS011;57639;52.410;-1.966;2023-04-23T10:27:25;9.05;;;7.45;;
61590;SDS011;57639;52.410;-1.966;2023-04-23T10:30:35;9.32;;;7.25;;
61590;SDS011;57639;52.410;-1.966;2023-04-23T10:33:42;8.82;;;7.18;;
61590;SDS011;57639;52.410;-1.966;2023-04-23T10:36:49;9.25;;;7.47;;
61590;SDS011;57639;52.410;-1.966;2023-04-23T10:39:58;10.00;;;7.88;;
61590;SDS011;57639;52.410;-1.966;2023-04-23T10:43:10;9.80;;;7.60;;
61590;SDS011;57639;52.410;-1.966;2023-04-23T10:46:29;9.55;;;7.78;;
61590;SDS011;57639;52.410;-1.966;2023-04-23T10:49:36;9.60;;;7.22;;
61590;SDS011;57639;52.410;-1.966;2023-04-23T10:52:43;9.45;;;7.15;;
61590;SDS011;57639;52.410;-1.966;2023-04-23T10:56:03;8.75;;;7.43;;
61590;SDS011;57639;52.410;-1.966;2023-04-23T10:59:17;9.63;;;7.97;;
61590;SDS011;57639;52.410;-1.966;2023-04-23T11:02:28;10.48;;;8.00;;
61590;SDS011;57639;52.410;-1.966;2023-04-23T11:05:48;9.23;;;7.05;;
61590;SDS011;57639;52.410;-1.966;2023-04-23T11:08:54;9.93;;;7.65;;
61590;SDS011;57639;52.410;-1.966;2023-04-23T11:12:01;10.25;;;7.45;;
61590;SDS011;57639;52.410;-1.966;2023-04-23T11:15:10;9.27;;;7.33;;
61590;SDS011;57639;52.410;-1.966;2023-04-23T11:18:21;8.98;;;7.30;;
61590;SDS011;57639;52.410;-1.966;2023-04-23T11:25:08;10.48;;;8.13;;
61590;SDS011;57639;52.410;-1.966;2023-04-23T11:28:18;10.60;;;7.50;;
61590;SDS011;57639;52.410;-1.966;2023-04-23T11:31:25;11.23;;;7.63;;
61590;SDS011;57639;52.410;-1.966;2023-04-23T11:34:34;10.98;;;7.63;;
61590;SDS011;57639;52.410;-1.966;2023-04-23T11:37:41;11.05;;;7.80;;
61590;SDS011;57639;52.410;-1.966;2023-04-23T11:40:50;10.75;;;7.35;;
61590;SDS011;57639;52.410;-1.966;2023-04-23T11:43:56;10.90;;;7.50;;
61590;SDS011;57639;52.410;-1.966;2023-04-23T11:47:02;11.38;;;7.68;;
61590;SDS011;57639;52.410;-1.966;2023-04-23T11:50:18;8.57;;;7.30;;
61590;SDS011;57639;52.410;-1.966;2023-04-23T11:53:25;10.43;;;7.47;;
61590;SDS011;57639;52.410;-1.966;2023-04-23T11:56:32;10.68;;;8.20;;
61590;SDS011;57639;52.410;-1.966;2023-04-23T11:59:39;12.93;;;8.48;;
61590;SDS011;57639;52.410;-1.966;2023-04-23T12:02:48;13.82;;;8.23;;
61590;SDS011;57639;52.410;-1.966;2023-04-23T12:06:02;10.23;;;8.70;;
61590;SDS011;57639;52.410;-1.966;2023-04-23T12:09:10;11.52;;;8.57;;
61590;SDS011;57639;52.410;-1.966;2023-04-23T12:12:17;11.52;;;8.10;;
61590;SDS011;57639;52.410;-1.966;2023-04-23T12:15:23;11.30;;;7.88;;
61590;SDS011;57639;52.410;-1.966;2023-04-23T12:18:30;11.93;;;8.27;;
61590;SDS011;57639;52.410;-1.966;2023-04-23T12:21:54;9.48;;;7.68;;
61590;SDS011;57639;52.410;-1.966;2023-04-23T12:25:04;12.25;;;8.25;;
61590;SDS011;57639;52.410;-1.966;2023-04-23T12:28:12;11.23;;;7.78;;
61590;SDS011;57639;52.410;-1.966;2023-04-23T12:31:18;10.45;;;7.07;;
61590;SDS011;57639;52.410;-1.966;2023-04-23T12:34:25;8.80;;;7.35;;
61590;SDS011;57639;52.410;-1.966;2023-04-23T12:37:35;10.77;;;7.28;;
61590;SDS011;57639;52.410;-1.966;2023-04-23T12:43:48;10.38;;;7.57;;
61590;SDS011;57639;52.410;-1.966;2023-04-23T12:46:54;10.07;;;6.65;;
61590;SDS011;57639;52.410;-1.966;2023-04-23T12:50:05;9.95;;;7.22;;
61590;SDS011;57639;52.410;-1.966;2023-04-23T12:53:15;8.88;;;6.82;;
61590;SDS011;57639;52.410;-1.966;2023-04-23T12:56:22;10.70;;;6.95;;
61590;SDS011;57639;52.410;-1.966;2023-04-23T12:59:29;9.30;;;6.90;;
61590;SDS011;57639;52.410;-1.966;2023-04-23T13:02:36;9.30;;;6.50;;
61590;SDS011;57639;52.410;-1.966;2023-04-23T13:05:42;9.82;;;7.10;;
61590;SDS011;57639;52.410;-1.966;2023-04-23T13:08:52;7.72;;;6.07;;
61590;SDS011;57639;52.410;-1.966;2023-04-23T13:11:58;7.53;;;5.87;;
61590;SDS011;57639;52.410;-1.966;2023-04-23T13:15:05;7.93;;;6.47;;
61590;SDS011;57639;52.410;-1.966;2023-04-23T13:18:14;8.80;;;6.60;;
61590;SDS011;57639;52.410;-1.966;2023-04-23T13:21:20;8.18;;;6.60;;
61590;SDS011;57639;52.410;-1.966;2023-04-23T13:24:29;9.07;;;6.68;;
61590;SDS011;57639;52.410;-1.966;2023-04-23T13:27:35;8.37;;;7.00;;
61590;SDS011;57639;52.410;-1.966;2023-04-23T13:30:42;8.18;;;6.63;;
61590;SDS011;57639;52.410;-1.966;2023-04-23T13:34:05;8.32;;;6.60;;
61590;SDS011;57639;52.410;-1.966;2023-04-23T13:37:30;9.02;;;6.25;;
61590;SDS011;57639;52.410;-1.966;2023-04-23T13:40:56;7.13;;;6.43;;
61590;SDS011;57639;52.410;-1.966;2023-04-23T13:44:19;7.90;;;6.78;;
61590;SDS011;57639;52.410;-1.966;2023-04-23T13:47:41;8.20;;;6.93;;
61590;SDS011;57639;52.410;-1.966;2023-04-23T13:51:04;8.75;;;7.05;;
61590;SDS011;57639;52.410;-1.966;2023-04-23T13:54:27;8.65;;;7.53;;
61590;SDS011;57639;52.410;-1.966;2023-04-23T13:57:52;8.35;;;6.75;;
61590;SDS011;57639;52.410;-1.966;2023-04-23T14:01:16;11.05;;;6.72;;
61590;SDS011;57639;52.410;-1.966;2023-04-23T14:04:39;7.80;;;6.70;;
61590;SDS011;57639;52.410;-1.966;2023-04-23T14:08:02;9.15;;;6.82;;
61590;SDS011;57639;52.410;-1.966;2023-04-23T14:11:24;9.25;;;6.80;;
61590;SDS011;57639;52.410;-1.966;2023-04-23T14:14:50;9.48;;;6.95;;
61590;SDS011;57639;52.410;-1.966;2023-04-23T14:18:13;7.90;;;6.80;;
61590;SDS011;57639;52.410;-1.966;2023-04-23T14:21:36;9.60;;;6.95;;
61590;SDS011;57639;52.410;-1.966;2023-04-23T14:25:00;8.63;;;6.85;;
61590;SDS011;57639;52.410;-1.966;2023-04-23T14:28:26;8.27;;;6.55;;
61590;SDS011;57639;52.410;-1.966;2023-04-23T14:35:19;8.68;;;6.47;;
61590;SDS011;57639;52.410;-1.966;2023-04-23T14:38:42;8.82;;;6.75;;
61590;SDS011;57639;52.410;-1.966;2023-04-23T14:42:04;14.00;;;7.32;;
61590;SDS011;57639;52.410;-1.966;2023-04-23T14:45:27;9.90;;;7.35;;
61590;SDS011;57639;52.410;-1.966;2023-04-23T14:48:53;10.02;;;6.75;;
61590;SDS011;57639;52.410;-1.966;2023-04-23T14:52:16;11.00;;;6.40;;
61590;SDS011;57639;52.410;-1.966;2023-04-23T14:55:38;8.57;;;6.65;;
61590;SDS011;57639;52.410;-1.966;2023-04-23T14:59:01;10.82;;;6.90;;
61590;SDS011;57639;52.410;-1.966;2023-04-23T15:02:24;13.68;;;6.60;;
61590;SDS011;57639;52.410;-1.966;2023-04-23T15:05:49;11.55;;;6.35;;
61590;SDS011;57639;52.410;-1.966;2023-04-23T15:09:12;10.68;;;6.35;;
61590;SDS011;57639;52.410;-1.966;2023-04-23T15:16:18;8.50;;;6.55;;
61590;SDS011;57639;52.410;-1.966;2023-04-23T15:19:47;8.23;;;6.25;;
61590;SDS011;57639;52.410;-1.966;2023-04-23T15:23:14;9.82;;;5.85;;
61590;SDS011;57639;52.410;-1.966;2023-04-23T15:26:39;11.20;;;6.47;;
61590;SDS011;57639;52.410;-1.966;2023-04-23T15:30:04;8.68;;;6.32;;
61590;SDS011;57639;52.410;-1.966;2023-04-23T15:33:27;9.98;;;6.20;;
61590;SDS011;57639;52.410;-1.966;2023-04-23T15:36:50;12.73;;;6.35;;
61590;SDS011;57639;52.410;-1.966;2023-04-23T15:40:16;10.20;;;6.20;;
61590;SDS011;57639;52.410;-1.966;2023-04-23T15:43:39;8.68;;;6.10;;
61590;SDS011;57639;52.410;-1.966;2023-04-23T15:47:02;9.13;;;6.20;;
61590;SDS011;57639;52.410;-1.966;2023-04-23T15:50:25;8.27;;;6.25;;
61590;SDS011;57639;52.410;-1.966;2023-04-23T15:53:47;8.00;;;6.15;;
61590;SDS011;57639;52.410;-1.966;2023-04-23T15:57:14;7.75;;;6.22;;
61590;SDS011;57639;52.410;-1.966;2023-04-23T16:00:36;8.10;;;6.05;;
61590;SDS011;57639;52.410;-1.966;2023-04-23T16:04:00;8.23;;;5.80;;
61590;SDS011;57639;52.410;-1.966;2023-04-23T16:07:23;7.93;;;6.00;;
61590;SDS011;57639;52.410;-1.966;2023-04-23T16:10:46;7.25;;;5.75;;
61590;SDS011;57639;52.410;-1.966;2023-04-23T16:14:11;8.70;;;5.80;;
61590;SDS011;57639;52.410;-1.966;2023-04-23T16:17:34;9.80;;;5.97;;
61590;SDS011;57639;52.410;-1.966;2023-04-23T16:20:57;11.57;;;6.50;;
61590;SDS011;57639;52.410;-1.966;2023-04-23T16:24:19;8.45;;;5.97;;
61590;SDS011;57639;52.410;-1.966;2023-04-23T16:27:38;7.85;;;5.78;;
61590;SDS011;57639;52.410;-1.966;2023-04-23T16:31:04;9.90;;;5.90;;
61590;SDS011;57639;52.410;-1.966;2023-04-23T16:34:27;11.65;;;6.05;;
61590;SDS011;57639;52.410;-1.966;2023-04-23T16:37:49;8.57;;;6.13;;
61590;SDS011;57639;52.410;-1.966;2023-04-23T16:41:12;10.05;;;6.28;;
61590;SDS011;57639;52.410;-1.966;2023-04-23T16:44:36;8.05;;;6.07;;
61590;SDS011;57639;52.410;-1.966;2023-04-23T16:48:02;7.32;;;5.80;;
61590;SDS011;57639;52.410;-1.966;2023-04-23T16:51:25;8.10;;;6.10;;
61590;SDS011;57639;52.410;-1.966;2023-04-23T16:54:48;9.35;;;6.40;;
61590;SDS011;57639;52.410;-1.966;2023-04-23T16:58:10;9.95;;;6.00;;
61590;SDS011;57639;52.410;-1.966;2023-04-23T17:01:35;9.25;;;6.43;;
61590;SDS011;57639;52.410;-1.966;2023-04-23T17:05:00;10.60;;;6.18;;
61590;SDS011;57639;52.410;-1.966;2023-04-23T17:08:24;7.60;;;5.53;;
61590;SDS011;57639;52.410;-1.966;2023-04-23T17:11:46;7.13;;;5.47;;
61590;SDS011;57639;52.410;-1.966;2023-04-23T17:15:09;10.27;;;6.22;;
61590;SDS011;57639;52.410;-1.966;2023-04-23T17:18:32;7.35;;;5.80;;
61590;SDS011;57639;52.410;-1.966;2023-04-23T17:21:54;8.85;;;5.85;;
61590;SDS011;57639;52.410;-1.966;2023-04-23T17:25:17;7.65;;;5.93;;
61590;SDS011;57639;52.410;-1.966;2023-04-23T17:28:39;8.85;;;5.57;;
61590;SDS011;57639;52.410;-1.966;2023-04-23T17:32:02;7.07;;;5.15;;
61590;SDS011;57639;52.410;-1.966;2023-04-23T17:35:25;7.65;;;5.70;;
61590;SDS011;57639;52.410;-1.966;2023-04-23T17:38:51;9.18;;;5.15;;
61590;SDS011;57639;52.410;-1.966;2023-04-23T17:42:13;6.47;;;5.65;;
61590;SDS011;57639;52.410;-1.966;2023-04-23T17:45:37;8.52;;;7.13;;
61590;SDS011;57639;52.410;-1.966;2023-04-23T17:49:00;9.48;;;7.10;;
61590;SDS011;57639;52.410;-1.966;2023-04-23T17:52:22;8.80;;;7.18;;
61590;SDS011;57639;52.410;-1.966;2023-04-23T17:55:48;9.48;;;6.50;;
61590;SDS011;57639;52.410;-1.966;2023-04-23T17:59:10;7.35;;;6.03;;
61590;SDS011;57639;52.410;-1.966;2023-04-23T18:02:34;6.57;;;5.85;;
61590;SDS011;57639;52.410;-1.966;2023-04-23T18:05:58;8.07;;;5.82;;
61590;SDS011;57639;52.410;-1.966;2023-04-23T18:09:20;6.22;;;5.28;;
61590;SDS011;57639;52.410;-1.966;2023-04-23T18:12:46;8.25;;;5.78;;
61590;SDS011;57639;52.410;-1.966;2023-04-23T18:16:09;6.68;;;5.30;;
61590;SDS011;57639;52.410;-1.966;2023-04-23T18:19:31;6.78;;;4.95;;
61590;SDS011;57639;52.410;-1.966;2023-04-23T18:22:54;7.78;;;5.28;;
61590;SDS011;57639;52.410;-1.966;2023-04-23T18:26:17;6.30;;;5.35;;
61590;SDS011;57639;52.410;-1.966;2023-04-23T18:29:42;6.70;;;5.15;;
61590;SDS011;57639;52.410;-1.966;2023-04-23T18:33:11;7.45;;;5.50;;
61590;SDS011;57639;52.410;-1.966;2023-04-23T18:36:45;6.57;;;4.65;;
61590;SDS011;57639;52.410;-1.966;2023-04-23T18:40:10;5.72;;;4.38;;
61590;SDS011;57639;52.410;-1.966;2023-04-23T18:43:33;6.88;;;4.90;;
61590;SDS011;57639;52.410;-1.966;2023-04-23T18:46:59;6.13;;;4.40;;
61590;SDS011;57639;52.410;-1.966;2023-04-23T18:50:29;5.25;;;4.60;;
61590;SDS011;57639;52.410;-1.966;2023-04-23T18:54:03;6.25;;;4.47;;
61590;SDS011;57639;52.410;-1.966;2023-04-23T18:57:26;5.47;;;4.22;;
61590;SDS011;57639;52.410;-1.966;2023-04-23T19:00:49;5.70;;;4.78;;
61590;SDS011;57639;52.410;-1.966;2023-04-23T19:04:14;5.68;;;4.43;;
61590;SDS011;57639;52.410;-1.966;2023-04-23T19:07:37;5.35;;;4.47;;
61590;SDS011;57639;52.410;-1.966;2023-04-23T19:11:01;5.93;;;4.60;;
61590;SDS011;57639;52.410;-1.966;2023-04-23T19:14:24;5.82;;;4.88;;
61590;SDS011;57639;52.410;-1.966;2023-04-23T19:17:47;5.18;;;4.63;;
61590;SDS011;57639;52.410;-1.966;2023-04-23T19:21:12;5.00;;;4.45;;
61590;SDS011;57639;52.410;-1.966;2023-04-23T19:24:35;4.60;;;4.10;;
61590;SDS011;57639;52.410;-1.966;2023-04-23T19:27:57;4.82;;;4.18;;